Milton, Massachusetts
Current Conditions -  °F | °C
As of 4:53 AM on Thursday 18 Dec 2014 (Local Time) from KOWD Reporting Station
Overcast Overcast  
Wind Chill: 31°   Ceiling: 4300
Heat Index: 39°   Visibility: 10mi
Dew Point: 29°   Wind: 14mph
Humidity: 67%   Direction: 270°W
Pressure: 29.73"   Gusts: NA
Location:  42.25°N, 71.08°W
Report Text: KOWD 180953Z AUTO 27012KT 10SM BKN043 OVC055 04/M02 A2973 RMK AO2 SLP067 T00391017
Loading
Personal Weather Stations






























Interactive Weather Map New forecast layout! Learn more

10-Day Weather Forecast

Advertisements
Track Severe Weather on mobile